Time;durP1;ratioP1;P1;durP2;ratioP2;P2;SDS_P1;SDS_P2;PMS_P1;PMS_P2;Temp;Humidity;BMP_temperature;BMP_pressure;BME280_temperature;BME280_humidity;BME280_pressure;Samples;Min_cycle;Max_cycle;Signal;HPM_P1;HPM_P2
2021/06/01 00:01:34;;;;;;;;;3.75;3.75;;;;;22.45;27.17;100754.25;4982394;28;46537;-85
2021/06/01 00:04:00;;;;;;;;;4.00;4.00;;;;;22.42;27.74;100749.25;4985754;28;45395;-82
2021/06/01 00:06:26;;;;;;;;;4.25;4.00;;;;;22.40;27.72;100755.78;4981058;28;45510;-79
2021/06/01 00:08:52;;;;;;;;;3.00;3.00;;;;;22.37;27.82;100751.63;4974137;28;45751;-79
2021/06/01 00:11:18;;;;;;;;;4.00;4.00;;;;;22.34;27.97;100748.50;4972515;28;45955;-83
2021/06/01 00:13:44;;;;;;;;;4.50;4.25;;;;;22.30;27.73;100744.53;4977114;28;46062;-82
2021/06/01 00:16:11;;;;;;;;;3.00;3.00;;;;;22.26;27.99;100757.41;4960407;28;45760;-80
2021/06/01 00:18:38;;;;;;;;;4.00;3.00;;;;;22.23;27.97;100756.94;4957284;28;45628;-84
2021/06/01 00:21:05;;;;;;;;;4.00;3.00;;;;;22.15;28.01;100747.16;4955432;28;48422;-86
2021/06/01 00:23:34;;;;;;;;;5.75;5.00;;;;;22.15;28.10;100752.50;4958557;28;45843;-82
2021/06/01 00:26:00;;;;;;;;;4.00;4.00;;;;;22.13;28.25;100747.34;4957402;28;45636;-90
2021/06/01 00:28:25;;;;;;;;;4.00;4.00;;;;;22.10;28.38;100750.38;4955902;28;45580;-82
2021/06/01 00:30:51;;;;;;;;;5.00;4.00;;;;;22.09;28.26;100751.38;4956066;28;46412;-82
2021/06/01 00:33:16;;;;;;;;;4.25;4.00;;;;;22.03;28.37;100735.25;4956573;28;45629;-81
2021/06/01 00:35:41;;;;;;;;;4.75;4.00;;;;;22.04;28.33;100751.09;4957146;28;45947;-87
2021/06/01 00:38:07;;;;;;;;;4.50;4.50;;;;;22.02;28.50;100741.63;4959783;28;45703;-81
2021/06/01 00:40:33;;;;;;;;;3.50;3.25;;;;;22.01;28.36;100745.31;4960410;28;45807;-85
2021/06/01 00:42:59;;;;;;;;;4.00;4.00;;;;;21.98;28.48;100740.31;4958528;28;48118;-82
2021/06/01 00:45:26;;;;;;;;;5.00;4.25;;;;;21.93;28.31;100734.66;4958026;28;45564;-81
2021/06/01 00:47:52;;;;;;;;;3.25;3.25;;;;;21.95;28.55;100735.34;4956223;28;45494;-80
2021/06/01 00:56:33;;;;;;;;;3.75;3.00;;;;;21.82;28.70;100735.91;4957772;28;45784;-80
2021/06/01 00:58:59;;;;;;;;;4.00;4.00;;;;;21.80;28.97;100739.78;4957788;28;45576;-83
2021/06/01 01:01:24;;;;;;;;;4.00;4.00;;;;;21.77;28.96;100736.44;4956028;28;47835;-78
2021/06/01 01:03:52;;;;;;;;;3.25;3.00;;;;;21.75;28.87;100738.44;4963470;28;46419;-84
2021/06/01 01:06:46;;;;;;;;;4.25;4.25;;;;;21.75;28.70;100738.44;4965257;28;45792;-78
2021/06/01 01:09:17;;;;;;;;;3.75;3.00;;;;;21.75;29.13;100734.97;4964524;28;45898;-79
2021/06/01 01:12:05;;;;;;;;;4.00;4.00;;;;;21.73;29.10;100729.81;4967616;28;45642;-78
2021/06/01 01:14:34;;;;;;;;;5.00;4.00;;;;;21.71;28.69;100731.81;4965835;28;45681;-78
2021/06/01 01:17:01;;;;;;;;;4.00;4.00;;;;;21.70;28.92;100734.69;4965723;28;45829;-81
2021/06/01 01:20:11;;;;;;;;;3.50;3.50;;;;;21.70;29.38;100727.47;4961851;28;45592;-77
2021/06/01 01:22:42;;;;;;;;;2.75;2.75;;;;;21.70;29.14;100718.69;4923828;28;46355;-79
2021/06/01 01:25:20;;;;;;;;;4.00;4.00;;;;;21.67;29.08;100725.19;4922639;28;46095;-83
2021/06/01 01:28:05;;;;;;;;;5.00;3.25;;;;;21.69;29.14;100728.53;4920882;28;45571;-86
2021/06/01 01:30:37;;;;;;;;;4.25;3.25;;;;;21.64;29.29;100725.56;4921104;28;45742;-83
2021/06/01 01:33:19;;;;;;;;;3.50;3.25;;;;;21.65;29.22;100727.19;4919708;28;45683;-84
2021/06/01 01:39:08;;;;;;;;;3.75;3.75;;;;;21.57;29.25;100716.59;4920888;28;45665;-80
2021/06/01 01:41:39;;;;;;;;;5.00;4.75;;;;;21.56;29.40;100714.94;4920272;28;45673;-80
2021/06/01 01:44:10;;;;;;;;;4.25;4.25;;;;;21.50;29.28;100704.13;4918689;28;46710;-81
2021/06/01 01:49:11;;;;;;;;;3.75;3.75;;;;;21.43;29.47;100711.22;4920067;28;45597;-81
2021/06/01 01:54:58;;;;;;;;;4.00;4.00;;;;;21.37;29.28;100696.75;4959897;28;45469;-79
2021/06/01 01:57:25;;;;;;;;;3.75;3.75;;;;;21.34;29.09;100707.75;4957207;28;47885;-78
2021/06/01 01:59:52;;;;;;;;;5.25;3.00;;;;;21.33;29.08;100692.75;4957425;28;45746;-78
2021/06/01 02:02:18;;;;;;;;;3.50;3.00;;;;;21.31;29.51;100694.78;4959592;28;45549;-79
2021/06/01 02:04:44;;;;;;;;;5.00;4.00;;;;;21.28;29.61;100697.78;4958399;28;46457;-80
2021/06/01 02:10:32;;;;;;;;;4.00;4.00;;;;;21.26;29.43;100689.16;4957753;28;45672;-82
2021/06/01 02:12:57;;;;;;;;;4.75;4.75;;;;;21.21;29.92;100683.53;4958474;28;45570;-81
2021/06/01 02:15:22;;;;;;;;;3.25;3.25;;;;;21.20;29.69;100690.69;4958124;28;45693;-83
2021/06/01 02:17:48;;;;;;;;;4.00;3.75;;;;;21.20;29.74;100695.19;4958994;28;46166;-80
2021/06/01 02:20:15;;;;;;;;;4.50;4.00;;;;;21.14;29.85;100683.38;4958510;28;45567;-81
2021/06/01 02:26:30;;;;;;;;;4.75;4.00;;;;;21.14;30.09;100690.53;4957602;28;45600;-79
2021/06/01 02:29:06;;;;;;;;;4.75;4.25;;;;;21.12;29.77;100687.19;4957534;28;46123;-79
2021/06/01 02:31:38;;;;;;;;;3.25;3.25;;;;;21.12;29.80;100687.19;4956135;28;45713;-79
2021/06/01 02:34:07;;;;;;;;;4.00;4.00;;;;;21.11;29.58;100690.84;4958088;28;45749;-79
2021/06/01 02:36:35;;;;;;;;;4.00;3.75;;;;;21.08;29.84;100691.22;4958707;28;45637;-79
2021/06/01 02:39:01;;;;;;;;;3.50;3.00;;;;;21.06;30.01;100685.22;4959162;28;46049;-79
2021/06/01 02:41:27;;;;;;;;;3.00;3.00;;;;;21.00;30.15;100688.59;4958417;28;45502;-79
2021/06/01 02:43:52;;;;;;;;;5.00;3.50;;;;;20.99;30.30;100681.63;4957278;28;45541;-78
2021/06/01 02:46:19;;;;;;;;;4.25;3.75;;;;;21.00;30.07;100684.06;4957072;28;46461;-77
2021/06/01 02:48:46;;;;;;;;;4.75;3.50;;;;;20.99;30.14;100681.63;4939317;28;48482;-79
2021/06/01 02:51:15;;;;;;;;;4.50;4.00;;;;;20.95;29.64;100675.78;4957240;28;45750;-83
2021/06/01 02:57:03;;;;;;;;;4.50;4.25;;;;;20.89;30.58;100671.19;4959479;28;45654;-77
2021/06/01 02:59:29;;;;;;;;;5.00;5.00;;;;;20.89;30.17;100673.84;4959633;28;45926;-78
2021/06/01 03:01:56;;;;;;;;;4.00;4.00;;;;;20.87;30.42;100670.50;4959928;28;45647;-81
2021/06/01 03:04:21;;;;;;;;;4.25;4.25;;;;;20.87;30.20;100666.03;4961458;28;45556;-77
2021/06/01 03:06:47;;;;;;;;;4.25;4.25;;;;;20.86;30.39;100660.84;4964635;28;45864;-77
2021/06/01 03:09:12;;;;;;;;;4.25;3.75;;;;;20.82;30.34;100657.72;4959547;28;48016;-79
2021/06/01 03:11:38;;;;;;;;;3.00;3.00;;;;;20.81;30.42;100661.38;4962151;28;45749;-79
2021/06/01 03:14:04;;;;;;;;;3.75;3.75;;;;;20.82;30.58;100662.22;4960239;28;45793;-79
2021/06/01 03:16:29;;;;;;;;;4.25;4.25;;;;;20.81;30.28;100666.72;4957569;28;47483;-79
2021/06/01 03:18:55;;;;;;;;;5.00;5.00;;;;;20.79;30.76;100660.72;4957871;28;45775;-81
2021/06/01 03:21:20;;;;;;;;;6.00;6.00;;;;;20.74;31.07;100656.91;4960388;28;45501;-78
2021/06/01 03:27:08;;;;;;;;;6.00;5.50;;;;;20.72;30.59;100659.78;4958920;28;46146;-79
2021/06/01 03:29:33;;;;;;;;;6.50;6.00;;;;;20.68;30.59;100655.78;4957542;28;48348;-80
2021/06/01 03:31:59;;;;;;;;;8.00;6.00;;;;;20.68;30.90;100658.44;4959283;28;45716;-80
2021/06/01 03:34:24;;;;;;;;;7.50;7.00;;;;;20.65;31.19;100653.47;4958078;28;45863;-79
2021/06/01 03:36:51;;;;;;;;;6.00;5.25;;;;;20.66;30.86;100655.13;4962402;28;45692;-88
2021/06/01 03:39:17;;;;;;;;;6.50;5.00;;;;;20.61;31.29;100644.19;4961376;28;45957;-79
2021/06/01 03:41:42;;;;;;;;;8.50;7.25;;;;;20.58;31.31;100636.50;4957878;28;45717;-79
2021/06/01 03:44:08;;;;;;;;;7.50;7.00;;;;;20.55;31.44;100642.19;4959083;28;45667;-83
2021/06/01 03:46:34;;;;;;;;;8.25;6.50;;;;;20.52;31.34;100646.03;4961562;28;46645;-80
2021/06/01 03:48:59;;;;;;;;;5.00;5.00;;;;;20.51;31.32;100651.53;4961622;28;45641;-84
2021/06/01 03:51:25;;;;;;;;;6.25;6.00;;;;;20.47;31.59;100650.19;4958733;28;45639;-85
2021/06/01 03:57:12;;;;;;;;;6.50;6.00;;;;;20.43;31.23;100643.56;4963267;28;45561;-82
2021/06/01 03:59:38;;;;;;;;;5.75;5.50;;;;;20.40;31.19;100644.75;4961219;28;47357;-79
2021/06/01 04:02:04;;;;;;;;;6.25;5.50;;;;;20.37;31.56;100645.09;4963080;28;45565;-79
2021/06/01 04:04:29;;;;;;;;;5.50;4.00;;;;;20.31;31.45;100642.25;4962957;28;45464;-82
2021/06/01 04:06:55;;;;;;;;;5.00;4.25;;;;;20.27;31.50;100643.59;4959496;28;45538;-78
2021/06/01 04:09:20;;;;;;;;;5.75;5.75;;;;;20.24;31.56;100639.44;4959046;28;45559;-80
2021/06/01 04:11:46;;;;;;;;;6.25;5.00;;;;;20.25;32.11;100650.91;4957134;28;45527;-80
2021/06/01 04:14:11;;;;;;;;;5.00;5.00;;;;;20.20;31.76;100647.91;4958641;28;45495;-81
2021/06/01 04:16:37;;;;;;;;;5.50;5.50;;;;;20.19;32.07;100648.94;4960804;28;46441;-82
2021/06/01 04:19:03;;;;;;;;;5.00;4.50;;;;;20.15;32.14;100643.13;4961357;28;45625;-82
2021/06/01 04:21:29;;;;;;;;;6.00;5.00;;;;;20.11;32.09;100645.28;4960303;28;45617;-82
2021/06/01 04:27:16;;;;;;;;;4.75;4.75;;;;;20.03;32.16;100647.94;4957826;28;45670;-81
2021/06/01 04:29:42;;;;;;;;;5.75;5.75;;;;;20.01;32.38;100641.16;4956129;28;45587;-80
2021/06/01 04:32:08;;;;;;;;;5.50;5.00;;;;;19.94;32.25;100638.34;4956576;28;45568;-84
2021/06/01 04:34:33;;;;;;;;;8.00;6.75;;;;;19.86;32.78;100629.56;4957081;28;45438;-78
2021/06/01 04:36:58;;;;;;;;;5.75;5.75;;;;;19.88;32.66;100641.66;4957424;28;45831;-79
2021/06/01 04:42:46;;;;;;;;;5.50;5.25;;;;;19.83;32.89;100633.38;4958325;28;45751;-81
2021/06/01 04:45:13;;;;;;;;;7.50;5.00;;;;;19.81;33.05;100637.22;4963047;28;45488;-81
2021/06/01 04:47:38;;;;;;;;;6.00;5.75;;;;;19.78;32.71;100627.72;4966521;28;45835;-85
2021/06/01 04:50:04;;;;;;;;;6.00;5.75;;;;;19.73;33.08;100629.22;4966638;28;45805;-88
2021/06/01 04:52:30;;;;;;;;;5.00;5.00;;;;;19.72;33.24;100631.03;4965139;28;45671;-86
2021/06/01 04:54:55;;;;;;;;;6.00;6.00;;;;;19.67;32.88;100634.22;4964510;28;45549;-83
2021/06/01 04:57:21;;;;;;;;;7.00;5.25;;;;;19.69;33.09;100637.53;4962475;28;46442;-86
2021/06/01 04:59:46;;;;;;;;;5.00;5.00;;;;;19.66;32.88;100623.72;4960063;28;46429;-85
2021/06/01 05:02:12;;;;;;;;;8.25;6.25;;;;;19.63;33.42;100618.78;4961835;28;45654;-87
2021/06/01 05:04:37;;;;;;;;;4.00;4.00;;;;;19.65;32.91;100622.91;4963199;28;45559;-81
2021/06/01 05:07:03;;;;;;;;;6.50;5.50;;;;;19.64;33.37;100631.06;4961018;28;46496;-86
2021/06/01 05:13:03;;;;;;;;;13.75;13.25;;;;;19.58;33.67;100618.44;4953464;28;46555;-87
2021/06/01 05:15:29;;;;;;;;;6.00;5.25;;;;;19.56;33.81;100620.41;4961856;28;45530;-87
2021/06/01 05:17:54;;;;;;;;;6.00;6.00;;;;;19.55;34.00;100616.09;4960321;28;46335;-84
2021/06/01 05:20:20;;;;;;;;;5.50;5.00;;;;;19.54;34.07;100617.13;4959613;28;45571;-83
2021/06/01 05:22:46;;;;;;;;;6.50;5.25;;;;;19.50;33.55;100613.94;4959972;28;45774;-88
2021/06/01 05:25:13;;;;;;;;;6.50;5.50;;;;;19.51;34.01;100612.97;4961664;28;45933;-83
2021/06/01 05:27:38;;;;;;;;;6.00;6.00;;;;;19.50;33.59;100613.13;4962571;28;46186;-82
2021/06/01 05:30:05;;;;;;;;;6.25;6.00;;;;;19.48;34.06;100615.97;4962539;28;45926;-79
2021/06/01 05:35:02;;;;;;;;;7.25;6.25;;;;;19.51;34.29;100615.63;4958979;28;45754;-89
2021/06/01 05:43:38;;;;;;;;;5.50;5.50;;;;;19.47;34.00;100618.78;4960459;28;45538;-86
2021/06/01 05:46:05;;;;;;;;;8.75;6.75;;;;;19.49;34.24;100608.78;4962196;28;45299;-82
2021/06/01 05:48:30;;;;;;;;;6.00;5.75;;;;;19.48;34.65;100607.16;4960384;28;48213;-82
2021/06/01 05:50:56;;;;;;;;;8.00;6.00;;;;;19.50;34.21;100613.94;4960576;28;46160;-82
2021/06/01 05:53:24;;;;;;;;;6.75;6.50;;;;;19.51;34.56;100606.81;4961364;28;45740;-81
2021/06/01 05:55:50;;;;;;;;;6.50;6.50;;;;;19.56;34.61;100615.09;4959870;28;45543;-80
2021/06/01 05:58:15;;;;;;;;;9.00;9.00;;;;;19.58;34.64;100605.97;4957108;28;48390;-86
2021/06/01 06:00:41;;;;;;;;;8.00;7.75;;;;;19.62;34.74;100601.16;4963840;28;45751;-85
2021/06/01 06:03:07;;;;;;;;;8.75;7.75;;;;;19.64;34.71;100605.31;4963406;28;45562;-80
2021/06/01 06:05:33;;;;;;;;;10.00;9.25;;;;;19.65;34.24;100606.94;4961846;28;45673;-82
2021/06/01 06:08:13;;;;;;;;;8.25;7.75;;;;;19.66;34.82;100600.66;4960547;28;45987;-88
2021/06/01 06:10:47;;;;;;;;;11.00;10.50;;;;;19.69;34.33;100608.31;4956955;28;46191;-84
2021/06/01 06:13:13;;;;;;;;;7.75;7.75;;;;;19.71;34.85;100605.44;4956808;28;45838;-84
2021/06/01 06:15:40;;;;;;;;;8.25;8.25;;;;;19.67;34.74;100604.13;4958907;28;45729;-84
2021/06/01 06:18:32;;;;;;;;;8.00;7.75;;;;;19.73;34.71;100600.81;4957862;28;45898;-85
2021/06/01 06:21:00;;;;;;;;;8.00;8.00;;;;;19.76;34.54;100608.44;4957662;28;46153;-86
2021/06/01 06:23:26;;;;;;;;;6.75;6.75;;;;;19.80;34.72;100611.59;4957958;28;45694;-84
2021/06/01 06:25:51;;;;;;;;;6.25;6.25;;;;;19.79;35.02;100602.81;4972983;28;45863;-85
2021/06/01 06:28:17;;;;;;;;;8.00;7.00;;;;;19.78;34.53;100594.97;4956362;28;48446;-85
2021/06/01 06:30:42;;;;;;;;;8.00;7.25;;;;;19.80;34.36;100596.50;4956247;28;48341;-85
2021/06/01 06:33:07;;;;;;;;;9.25;8.00;;;;;19.83;34.62;100603.28;4956091;28;45669;-84
2021/06/01 06:35:33;;;;;;;;;5.75;5.75;;;;;19.85;34.85;100601.28;4956494;28;46026;-84
2021/06/01 06:37:58;;;;;;;;;6.25;6.25;;;;;19.85;34.66;100590.66;4961570;28;46297;-85
2021/06/01 06:40:24;;;;;;;;;8.50;8.25;;;;;19.85;34.56;100583.50;4960097;28;47074;-84
2021/06/01 06:42:50;;;;;;;;;11.75;11.25;;;;;19.92;34.59;100592.44;4957601;28;45644;-86
2021/06/01 06:45:16;;;;;;;;;7.25;7.25;;;;;19.92;35.21;100587.13;4955735;28;45591;-84
2021/06/01 06:50:13;;;;;;;;;7.00;7.00;;;;;19.98;34.77;100594.44;4956932;28;45696;-87
2021/06/01 06:52:41;;;;;;;;;9.75;8.00;;;;;20.00;34.74;100588.97;4957978;28;45605;-85
2021/06/01 06:58:28;;;;;;;;;11.25;9.00;;;;;20.05;34.85;100597.25;4957186;28;45590;-83
2021/06/01 07:00:53;;;;;;;;;8.00;7.00;;;;;20.08;34.82;100599.59;4960566;28;46322;-84
2021/06/01 07:03:19;;;;;;;;;7.00;7.00;;;;;20.07;34.87;100590.78;4956156;28;45677;-86
2021/06/01 07:05:44;;;;;;;;;7.25;6.00;;;;;20.05;34.91;100584.78;4956500;28;45605;-86
2021/06/01 07:08:09;;;;;;;;;5.00;5.00;;;;;20.13;35.04;100587.41;4955666;28;47567;-85
2021/06/01 07:10:35;;;;;;;;;7.25;5.75;;;;;20.13;35.23;100583.94;4971495;28;47600;-82
2021/06/01 07:13:07;;;;;;;;;6.50;4.75;;;;;20.13;35.30;100583.94;4956665;28;45601;-85
2021/06/01 07:15:40;;;;;;;;;5.25;5.00;;;;;20.17;35.15;100587.91;4957136;28;45509;-86
2021/06/01 07:18:06;;;;;;;;;6.00;6.00;;;;;20.17;35.15;100579.94;4956376;28;46882;-84
2021/06/01 07:20:32;;;;;;;;;6.75;6.75;;;;;20.22;35.39;100577.59;4955759;28;47405;-85
2021/06/01 07:22:59;;;;;;;;;7.25;6.25;;;;;20.27;34.87;100577.06;4957772;28;45454;-85
2021/06/01 07:28:46;;;;;;;;;5.75;5.50;;;;;20.33;35.43;100569.25;4960431;28;45978;-85
2021/06/01 07:44:25;;;;;;;;;8.75;7.00;;;;;20.50;35.61;100564.69;5051173;27;45725;-85
2021/06/01 07:46:51;;;;;;;;;5.00;5.00;;;;;20.57;35.52;100565.63;5031255;27;46031;-83
2021/06/01 07:49:17;;;;;;;;;7.00;7.00;;;;;20.52;35.31;100552.84;5033966;28;45655;-84
2021/06/01 07:51:43;;;;;;;;;8.00;7.00;;;;;20.66;35.05;100569.94;5021836;28;45606;-81
2021/06/01 07:54:09;;;;;;;;;7.00;7.00;;;;;20.64;35.42;100552.47;5026206;28;47180;-83
2021/06/01 07:56:35;;;;;;;;;6.00;6.00;;;;;20.71;35.26;100572.91;5029074;28;45655;-84
2021/06/01 07:59:00;;;;;;;;;7.00;6.50;;;;;20.52;35.65;100533.38;5056428;27;45725;-82
2021/06/01 08:01:26;;;;;;;;;7.50;6.50;;;;;20.58;35.58;100521.22;5033947;28;48325;-83
2021/06/01 08:03:51;;;;;;;;;8.00;7.00;;;;;20.87;35.22;100559.47;5039464;28;48042;-83
2021/06/01 08:06:17;;;;;;;;;6.50;6.50;;;;;20.81;35.18;100541.53;5032574;28;45857;-82
2021/06/01 08:08:42;;;;;;;;;7.00;7.00;;;;;20.95;35.37;100551.41;5058566;27;45501;-81
2021/06/01 08:11:08;;;;;;;;;7.25;7.25;;;;;20.98;35.24;100542.25;5026458;28;46388;-80
2021/06/01 08:13:34;;;;;;;;;8.25;7.25;;;;;21.00;34.96;100534.09;5026935;28;46919;-79
2021/06/01 08:16:01;;;;;;;;;8.25;7.50;;;;;21.02;35.29;100526.72;5032661;28;45794;-83
2021/06/01 08:18:29;;;;;;;;;9.00;7.75;;;;;21.05;35.30;100523.72;5036589;28;45704;-81
2021/06/01 08:21:11;;;;;;;;;6.75;6.00;;;;;20.89;35.08;100490.84;5035063;28;47118;-81
2021/06/01 08:23:37;;;;;;;;;10.75;7.50;;;;;21.09;35.31;100515.19;5028749;28;46195;-81
2021/06/01 08:26:03;;;;;;;;;8.25;7.75;;;;;21.09;35.20;100495.72;5031054;28;45947;-81
2021/06/01 08:28:30;;;;;;;;;7.00;6.00;;;;;21.19;35.26;100501.66;5036111;27;45706;-83
2021/06/01 08:30:55;;;;;;;;;8.00;8.00;;;;;21.29;35.10;100512.88;5039318;28;45790;-81
2021/06/01 08:33:22;;;;;;;;;8.25;7.00;;;;;21.21;34.92;100496.97;5035123;28;45938;-81
2021/06/01 08:35:47;;;;;;;;;7.00;7.00;;;;;21.12;35.29;100474.84;5041645;28;45464;-83
2021/06/01 08:38:15;;;;;;;;;10.00;9.00;;;;;21.09;35.14;100467.22;5044591;28;45282;-84
2021/06/01 08:40:41;;;;;;;;;7.75;7.75;;;;;21.24;35.16;100480.63;5038325;28;45709;-83
2021/06/01 08:43:25;;;;;;;;;9.25;6.00;;;;;21.50;35.43;100522.84;5040831;28;46109;-86
2021/06/01 08:45:53;;;;;;;;;7.50;6.50;;;;;21.49;35.08;100503.34;5018007;28;45716;-82
2021/06/01 08:48:20;;;;;;;;;9.25;7.75;;;;;21.42;35.20;100474.94;5027459;27;45604;-86
2021/06/01 08:50:47;;;;;;;;;8.25;8.00;;;;;21.66;35.29;100515.50;5018897;28;47535;-85
2021/06/01 08:53:14;;;;;;;;;8.00;7.25;;;;;21.34;35.27;100447.34;5029655;28;47929;-87
2021/06/01 08:55:40;;;;;;;;;8.50;7.00;;;;;21.75;35.24;100509.06;5009491;28;45964;-83
2021/06/01 08:58:11;;;;;;;;;7.00;7.00;;;;;21.69;35.26;100493.81;5007751;28;45794;-87
2021/06/01 09:00:37;;;;;;;;;9.25;8.00;;;;;21.83;35.27;100516.16;5019710;28;46723;-86
2021/06/01 09:03:11;;;;;;;;;13.75;12.50;;;;;21.72;34.90;100497.94;5019175;28;45516;-88
2021/06/01 09:06:00;;;;;;;;;10.00;10.00;;;;;21.75;35.48;100482.38;5019932;27;45746;-80
2021/06/01 09:22:36;;;;;;;;;8.00;7.00;;;;;22.23;35.01;100495.38;5009307;28;46156;-85
2021/06/01 09:27:55;;;;;;;;;7.25;7.00;;;;;22.17;35.11;100465.75;5012552;27;45894;-82
2021/06/01 09:30:40;;;;;;;;;8.50;8.00;;;;;22.30;35.02;100473.06;5011411;28;45768;-83
2021/06/01 09:33:18;;;;;;;;;10.00;8.75;;;;;22.40;34.80;100473.56;5001809;28;45719;-80
2021/06/01 09:36:01;;;;;;;;;8.00;8.00;;;;;22.45;35.11;100473.03;5009450;28;46275;-81
2021/06/01 09:38:29;;;;;;;;;7.25;7.00;;;;;22.58;34.95;100476.66;5012065;28;45694;-81
2021/06/01 09:41:28;;;;;;;;;6.75;6.25;;;;;22.64;34.83;100468.88;5012329;27;45999;-82
2021/06/01 09:44:05;;;;;;;;;7.75;7.25;;;;;22.71;35.00;100473.31;5010765;28;48839;-80
2021/06/01 09:46:35;;;;;;;;;7.00;6.00;;;;;22.54;34.96;100431.81;5009945;28;46032;-85
2021/06/01 09:49:13;;;;;;;;;8.25;8.25;;;;;22.84;34.37;100469.94;5020560;27;45848;-82
2021/06/01 09:51:45;;;;;;;;;8.00;8.00;;;;;22.80;34.33;100456.13;5011369;28;45821;-82
2021/06/01 09:54:34;;;;;;;;;6.25;6.25;;;;;22.97;34.69;100475.41;5004804;28;45810;-82
2021/06/01 09:57:02;;;;;;;;;7.25;7.00;;;;;22.99;34.56;100476.03;5009207;28;46589;-79
2021/06/01 09:59:28;;;;;;;;;8.50;8.50;;;;;22.92;34.25;100449.25;5008891;28;46161;-79
2021/06/01 10:01:54;;;;;;;;;8.75;8.00;;;;;23.01;34.26;100452.59;5010854;28;45590;-80
2021/06/01 10:04:28;;;;;;;;;9.00;7.75;;;;;23.22;34.33;100473.94;5000199;28;46454;-83
2021/06/01 10:06:54;;;;;;;;;8.00;6.50;;;;;23.32;34.21;100477.09;5006284;28;47988;-79
2021/06/01 10:09:20;;;;;;;;;10.00;8.50;;;;;23.21;34.18;100448.22;5004051;28;45725;-82
2021/06/01 10:11:57;;;;;;;;;9.00;7.25;;;;;23.39;34.54;100464.63;5003328;28;45788;-83
2021/06/01 10:14:24;;;;;;;;;7.75;7.75;;;;;23.47;33.87;100462.84;4998726;28;46574;-83
2021/06/01 10:16:50;;;;;;;;;11.00;9.00;;;;;23.41;33.83;100435.84;5011450;27;47567;-82
2021/06/01 10:19:16;;;;;;;;;7.50;6.75;;;;;23.60;34.31;100457.56;5065337;27;46002;-85
2021/06/01 10:21:44;;;;;;;;;6.00;6.00;;;;;23.67;34.23;100451.25;5009756;28;45524;-85
2021/06/01 10:24:12;;;;;;;;;7.00;5.50;;;;;23.65;33.75;100447.09;5011564;27;46099;-82
2021/06/01 10:26:39;;;;;;;;;7.25;5.25;;;;;23.52;33.69;100413.09;5014129;27;46046;-85
2021/06/01 10:29:06;;;;;;;;;6.50;5.75;;;;;23.58;33.59;100398.09;5009537;28;46002;-83
2021/06/01 10:31:31;;;;;;;;;6.00;5.75;;;;;23.66;33.35;100417.47;5009678;27;45693;-88
2021/06/01 10:33:59;;;;;;;;;7.00;6.25;;;;;23.96;33.15;100441.28;5024221;27;47459;-85
2021/06/01 10:50:23;;;;;;;;;7.50;7.00;;;;;24.23;32.67;100427.84;5044394;27;45885;-85
2021/06/01 10:53:11;;;;;;;;;6.50;6.00;;;;;24.29;33.22;100436.09;4999882;28;46071;-85
2021/06/01 10:55:51;;;;;;;;;7.00;7.00;;;;;24.35;33.15;100427.22;5010969;28;47453;-84
2021/06/01 10:58:24;;;;;;;;;6.75;6.75;;;;;24.38;32.69;100427.66;5009911;28;47167;-86
2021/06/01 11:03:18;;;;;;;;;7.75;6.25;;;;;24.12;32.54;100365.97;5012881;28;46060;-87
2021/06/01 11:05:59;;;;;;;;;6.00;6.00;;;;;24.46;32.55;100438.16;5014097;28;46638;-88
2021/06/01 11:08:38;;;;;;;;;7.00;6.00;;;;;24.43;33.04;100411.78;5012347;28;45891;-85
2021/06/01 11:11:22;;;;;;;;;6.00;6.00;;;;;24.56;32.62;100429.75;5013290;28;45742;-85
2021/06/01 11:13:48;;;;;;;;;6.75;6.50;;;;;24.42;32.48;100388.72;5021894;28;46097;-86
2021/06/01 11:16:14;;;;;;;;;8.00;7.00;;;;;24.51;32.55;100395.50;5014715;28;47532;-87
2021/06/01 11:18:50;;;;;;;;;6.75;6.00;;;;;24.56;32.71;100393.03;5013511;28;46029;-85
2021/06/01 11:35:11;;;;;;;;;5.25;5.25;;;;;24.77;32.06;100386.69;5075919;27;45823;-85
2021/06/01 11:37:46;;;;;;;;;6.00;5.50;;;;;24.84;32.02;100387.47;5069315;28;47714;-86
2021/06/01 11:43:05;;;;;;;;;8.00;7.00;;;;;24.99;31.77;100390.00;5057341;28;45813;-85
2021/06/01 11:45:40;;;;;;;;;6.50;6.00;;;;;24.87;32.07;100357.59;5053759;28;45784;-85
2021/06/01 11:48:09;;;;;;;;;7.00;6.50;;;;;24.84;32.28;100346.44;5069943;28;47321;-85
2021/06/01 11:53:18;;;;;;;;;6.75;6.25;;;;;24.93;31.76;100340.72;5074152;28;45693;-86
2021/06/01 11:55:47;;;;;;;;;7.00;6.50;;;;;25.22;31.58;100379.63;5058315;28;45888;-87
2021/06/01 12:04:17;;;;;;;;;7.00;6.00;;;;;25.34;31.63;100371.75;5073065;28;45720;-84
2021/06/01 12:18:14;;;;;;;;;8.25;5.50;;;;;25.46;30.94;100354.81;5009378;28;45665;-84
2021/06/01 12:20:40;;;;;;;;;5.75;5.75;;;;;25.57;30.50;100372.13;5009466;27;47888;-87
2021/06/01 12:23:33;;;;;;;;;7.00;5.75;;;;;25.61;30.67;100372.53;5016088;27;45813;-85
2021/06/01 12:26:40;;;;;;;;;6.50;6.00;;;;;25.61;30.64;100367.97;5010516;28;45627;-85
2021/06/01 12:32:15;;;;;;;;;7.00;6.00;;;;;25.78;30.62;100366.47;5085290;27;45832;-83
2021/06/01 13:23:32;;;;;;;;;6.00;5.50;;;;;26.64;30.10;100337.19;5010904;28;45712;-84
2021/06/01 13:40:11;;;;;;;;;5.00;5.00;;;;;26.92;29.90;100327.84;5092231;27;45794;-82
2021/06/01 13:48:36;;;;;;;;;5.00;5.00;;;;;27.09;29.99;100320.84;5089535;27;45767;-80
2021/06/01 13:51:23;;;;;;;;;5.75;5.00;;;;;27.11;29.77;100314.19;5084000;27;46682;-82
2021/06/01 13:55:07;;;;;;;;;5.75;5.00;;;;;27.13;29.80;100320.19;5085420;27;45985;-82
2021/06/01 13:56:34;;;;;;;;;5.75;5.00;;;;;27.16;29.79;100313.50;5087484;27;46036;-81
2021/06/01 14:02:06;;;;;;;;;5.75;5.00;;;;;27.22;29.92;100317.19;5006375;28;46106;-78
2021/06/01 15:28:55;;;;;;;;;4.00;4.00;;;;;36.72;21.89;100278.03;5009486;27;45849;-81
2021/06/01 15:50:32;;;;;;;;;3.00;3.00;;;;;37.26;19.99;100256.63;5019626;27;45908;-83
2021/06/01 17:04:59;;;;;;;;;6.25;5.75;;;;;36.13;21.35;100208.13;5007300;27;45662;-78
2021/06/01 17:13:00;;;;;;;;;4.25;3.50;;;;;35.87;20.99;100207.56;5006652;28;46022;-79
2021/06/01 17:15:26;;;;;;;;;5.25;4.75;;;;;35.74;21.56;100194.56;5011299;28;45742;-79
2021/06/01 17:17:56;;;;;;;;;5.25;5.25;;;;;35.76;21.23;100212.28;5010959;28;46666;-77
2021/06/01 17:23:19;;;;;;;;;6.75;6.50;;;;;35.58;21.42;100207.47;5010467;27;45788;-80
2021/06/01 17:36:48;;;;;;;;;5.00;5.00;;;;;35.15;21.66;100192.75;4970119;28;45819;-78
2021/06/01 17:39:14;;;;;;;;;6.25;5.50;;;;;35.06;21.72;100197.16;4972747;28;46280;-78
2021/06/01 17:41:40;;;;;;;;;6.50;6.25;;;;;35.00;21.90;100195.56;4956000;28;46599;-79
2021/06/01 17:44:08;;;;;;;;;5.00;5.00;;;;;34.96;21.77;100197.22;4973111;28;45682;-78
2021/06/01 17:46:36;;;;;;;;;5.25;5.00;;;;;34.90;21.84;100195.59;4972894;28;45677;-78
2021/06/01 17:49:04;;;;;;;;;4.00;4.00;;;;;34.86;22.04;100210.88;4953954;28;47678;-77
2021/06/01 17:51:31;;;;;;;;;5.00;5.00;;;;;34.78;22.01;100195.94;4970312;28;45827;-77
2021/06/01 17:53:59;;;;;;;;;5.75;5.00;;;;;34.74;21.99;100203.03;5011694;28;45821;-77
2021/06/01 17:56:26;;;;;;;;;5.25;5.25;;;;;34.67;21.80;100196.22;4969509;28;45738;-79
2021/06/01 17:58:53;;;;;;;;;6.00;5.25;;;;;34.62;22.09;100199.78;4968942;28;46418;-80
2021/06/01 18:01:21;;;;;;;;;6.00;5.75;;;;;34.57;22.07;100199.78;4968396;28;46274;-77
2021/06/01 18:06:26;;;;;;;;;5.75;5.75;;;;;34.47;22.07;100199.81;5071602;27;45609;-81
2021/06/01 18:42:15;;;;;;;;;7.00;7.00;;;;;33.55;24.09;100200.94;4988262;27;46124;-78
2021/06/01 19:25:15;;;;;;;;;9.00;8.00;;;;;32.22;26.08;100228.56;5008976;28;45704;-82
2021/06/01 19:50:04;;;;;;;;;9.00;7.50;;;;;31.26;27.01;100260.09;5002703;28;46422;-80
2021/06/01 19:52:31;;;;;;;;;9.50;8.25;;;;;31.16;27.02;100260.78;5007620;28;46271;-81
2021/06/01 19:55:01;;;;;;;;;10.50;9.50;;;;;31.07;26.86;100267.72;5008342;28;45680;-80
2021/06/01 19:57:27;;;;;;;;;12.25;12.00;;;;;30.99;27.16;100267.31;5015425;27;45972;-80
2021/06/01 19:59:55;;;;;;;;;12.75;9.75;;;;;30.89;27.40;100265.28;5001731;28;46290;-80
2021/06/01 20:02:25;;;;;;;;;9.75;9.25;;;;;30.81;27.53;100260.31;5043101;27;45750;-81
2021/06/01 20:04:54;;;;;;;;;9.75;9.00;;;;;30.72;27.65;100268.03;5021151;27;45856;-81